Mt Bomar Mars — 9HCM9 — position and weather

sailwx.info

Track history (hours):
 
Tides and Currents Weather Stations Pressure Air Temp Water Temp Dewpoint Dewpoint Depression Visibility Wind Speed Wind Dir Waves Ship Positions

Mt Bomar Mars

Last reported at 2014-Sep-01 23:08 UTC. Time now 2014-Sep-02 01:53 UTC.
Position N 42°43' E 004°36'.

Length 107 m; draft 5 m.

Type: Ship. MMSI: 256784000.

Date/timePositionNaut miles runAvg speedWind from/ knotsBaromVisibWave heightAir tempDewpointWater temp
2014-Sep-01 23:08N 42°43' E 004°36'2212.8
2014-Sep-01 21:25N 43°02' E 004°52'1011.9
2014-Sep-01 20:34N 43°10' E 004°60'1212.1
2014-Sep-01 19:34N 43°22' E 004°57'6 4.6
2014-Sep-01 18:22N 43°25' E 004°50'0 0.0
2014-Sep-01 17:10N 43°25' E 004°50'0 0.0
2014-Sep-01 16:22N 43°25' E 004°50'0 0.0
2014-Sep-01 15:28N 43°25' E 004°50'0 0.0
2014-Sep-01 14:19N 43°25' E 004°50'0 0.0
2014-Sep-01 13:22N 43°25' E 004°50'0 0.0
2014-Sep-01 12:25N 43°25' E 004°50'0 0.0
2014-Sep-01 11:13N 43°25' E 004°50'0 0.0
2014-Sep-01 10:31N 43°25' E 004°50'0 0.0
2014-Sep-01 09:28N 43°25' E 004°50'0 0.0
2014-Sep-01 08:22N 43°25' E 004°50'0 0.0
2014-Sep-01 05:31N 43°25' E 004°50'0 0.0
2014-Sep-01 04:22N 43°25' E 004°50'0 0.0
2014-Sep-01 03:33N 43°25' E 004°50'8 7.7
2014-Sep-01 02:33N 43°21' E 004°59'10 9.8
2014-Sep-01 01:33N 43°11' E 005°02'1210.3
2014-Sep-01 00:23N 43°01' E 004°52'19 9.7
2014-Aug-31 22:27N 42°47' E 004°36'9 9.5
2014-Aug-31 21:33N 42°40' E 004°29'10 9.9
2014-Aug-31 20:34N 42°32' E 004°21'1110.1
2014-Aug-31 19:31N 42°24' E 004°12'1111.2
2014-Aug-31 18:31N 42°15' E 004°03'1111.4
2014-Aug-31 17:32N 42°06' E 003°54'1111.2
2014-Aug-31 16:33N 41°57' E 003°45'1111.2
2014-Aug-31 15:32N 41°48' E 003°36'1111.1
2014-Aug-31 14:33N 41°39' E 003°27'1211.4
2014-Aug-31 13:30N 41°30' E 003°17'1110.8
2014-Aug-31 12:28N 41°21' E 003°07'1212.1
2014-Aug-31 11:29N 41°12' E 002°58'1010.2
2014-Aug-31 10:33N 41°04' E 002°50'1111.4
2014-Aug-31 09:33N 40°55' E 002°41'1211.7
2014-Aug-31 08:33N 40°46' E 002°32'1211.7
2014-Aug-31 07:33N 40°37' E 002°22'1211.5
2014-Aug-31 06:33N 40°28' E 002°13'1110.9
2014-Aug-31 05:33N 40°19' E 002°04'1111.0
2014-Aug-31 04:33N 40°10' E 001°55'1111.0
2014-Aug-31 03:33N 40°02' E 001°47'1111.1
2014-Aug-31 02:33N 39°53' E 001°38'1111.1
2014-Aug-31 01:33N 39°44' E 001°29'1111.1
2014-Aug-31 00:31N 39°35' E 001°20'1311.1
2014-Aug-30 23:22N 39°24' E 001°10'1011.0
2014-Aug-30 22:26N 39°16' E 001°02'11710.7
2014-Aug-30 11:31N 37°41' W 000°24'3 3.5
2014-Aug-30 10:33N 37°38' W 000°26'1510.6
2014-Aug-30 09:07N 37°27' W 000°39'610.3
2014-Aug-30 08:32N 37°23' W 000°45'1110.6
2014-Aug-30 07:30N 37°16' W 000°55'1210.5
2014-Aug-30 06:20N 37°08' W 001°07'6411.1
2014-Aug-30 00:33N 36°25' W 002°07'15412.6
2014-Aug-29 12:21N 35°59' W 005°15'12012.2
2014-Aug-29 02:32N 36°11' W 007°42'1111.8
2014-Aug-29 01:33N 36°13' W 007°56'1411.8
2014-Aug-29 00:24N 36°16' W 008°13'1012.0
2014-Aug-28 23:32N 36°19' W 008°25'1211.7
2014-Aug-28 22:33N 36°22' W 008°39'1211.9
2014-Aug-28 21:33N 36°24' W 008°53'1212.2
2014-Aug-28 20:33N 36°27' W 009°08'1511.6
2014-Aug-28 19:17N 36°34' W 009°25'1012.6
2014-Aug-28 18:31N 36°41' W 009°33'  
2014-Aug-24 22:11N 49°35' W 000°19'711.8
2014-Aug-24 21:33N 49°32' W 000°08'1111.1
2014-Aug-24 20:33N 49°28' E 000°08'4 4.1
2014-Aug-24 19:33N 49°28' E 000°14'0 0.0
2014-Aug-24 18:31N 49°28' E 000°14'0 0.0
2014-Aug-24 17:31N 49°28' E 000°14'0 0.0
2014-Aug-24 16:31N 49°28' E 000°14'0 0.0
2014-Aug-24 15:31N 49°28' E 000°14'0 0.0
2014-Aug-24 14:31N 49°28' E 000°14'0 0.0
2014-Aug-24 13:31N 49°28' E 000°14'0 0.0
2014-Aug-24 12:31N 49°28' E 000°14'0 0.0
2014-Aug-24 11:31N 49°28' E 000°14'0 0.0
2014-Aug-24 10:22N 49°28' E 000°14'0 0.0
2014-Aug-24 09:28N 49°28' E 000°14'0 0.0
2014-Aug-24 08:31N 49°28' E 000°14'0 0.0
2014-Aug-24 07:31N 49°28' E 000°14'0 0.0
2014-Aug-24 06:31N 49°28' E 000°14'0 0.0
2014-Aug-24 05:13N 49°28' E 000°14'0 0.0
2014-Aug-24 04:31N 49°28' E 000°14'0 0.0
2014-Aug-24 03:31N 49°28' E 000°14'0 0.0
2014-Aug-24 02:25N 49°28' E 000°14'0 0.0
2014-Aug-24 01:31N 49°28' E 000°14'0 0.0
2014-Aug-23 23:31N 49°28' E 000°14'0 0.0
2014-Aug-23 22:31N 49°28' E 000°14'0 0.0
2014-Aug-23 21:25N 49°28' E 000°14'0 0.0
2014-Aug-23 20:25N 49°28' E 000°14'0 0.0
2014-Aug-23 19:34N 49°28' E 000°14'  
Track history (hours):
 
Tides and Currents Weather Stations Pressure Air Temp Water Temp Dewpoint Dewpoint Depression Visibility Wind Speed Wind Dir Waves Ship Positions

Mt Bomar Mars

Last reported at 2014-Sep-01 23:08 UTC. Time now 2014-Sep-02 01:53 UTC.
Position N 42°43' E 004°36'.

Length 107 m; draft 5 m.

Type: Ship. MMSI: 256784000.

Date/timePositionNaut miles runAvg speedWind from/ knotsBaromVisibWave heightAir tempDewpointWater temp
2014-Sep-01 23:08N 42°43' E 004°36'2212.8
2014-Sep-01 21:25N 43°02' E 004°52'1011.9
2014-Sep-01 20:34N 43°10' E 004°60'1212.1
2014-Sep-01 19:34N 43°22' E 004°57'6 4.6
2014-Sep-01 18:22N 43°25' E 004°50'0 0.0
2014-Sep-01 17:10N 43°25' E 004°50'0 0.0
2014-Sep-01 16:22N 43°25' E 004°50'0 0.0
2014-Sep-01 15:28N 43°25' E 004°50'0 0.0
2014-Sep-01 14:19N 43°25' E 004°50'0 0.0
2014-Sep-01 13:22N 43°25' E 004°50'0 0.0
2014-Sep-01 12:25N 43°25' E 004°50'0 0.0
2014-Sep-01 11:13N 43°25' E 004°50'0 0.0
2014-Sep-01 10:31N 43°25' E 004°50'0 0.0
2014-Sep-01 09:28N 43°25' E 004°50'0 0.0
2014-Sep-01 08:22N 43°25' E 004°50'0 0.0
2014-Sep-01 05:31N 43°25' E 004°50'0 0.0
2014-Sep-01 04:22N 43°25' E 004°50'0 0.0
2014-Sep-01 03:33N 43°25' E 004°50'8 7.7
2014-Sep-01 02:33N 43°21' E 004°59'10 9.8
2014-Sep-01 01:33N 43°11' E 005°02'1210.3
2014-Sep-01 00:23N 43°01' E 004°52'19 9.7
2014-Aug-31 22:27N 42°47' E 004°36'9 9.5
2014-Aug-31 21:33N 42°40' E 004°29'10 9.9
2014-Aug-31 20:34N 42°32' E 004°21'1110.1
2014-Aug-31 19:31N 42°24' E 004°12'1111.2
2014-Aug-31 18:31N 42°15' E 004°03'1111.4
2014-Aug-31 17:32N 42°06' E 003°54'1111.2
2014-Aug-31 16:33N 41°57' E 003°45'1111.2
2014-Aug-31 15:32N 41°48' E 003°36'1111.1
2014-Aug-31 14:33N 41°39' E 003°27'1211.4
2014-Aug-31 13:30N 41°30' E 003°17'1110.8
2014-Aug-31 12:28N 41°21' E 003°07'1212.1
2014-Aug-31 11:29N 41°12' E 002°58'1010.2
2014-Aug-31 10:33N 41°04' E 002°50'1111.4
2014-Aug-31 09:33N 40°55' E 002°41'1211.7
2014-Aug-31 08:33N 40°46' E 002°32'1211.7
2014-Aug-31 07:33N 40°37' E 002°22'1211.5
2014-Aug-31 06:33N 40°28' E 002°13'1110.9
2014-Aug-31 05:33N 40°19' E 002°04'1111.0
2014-Aug-31 04:33N 40°10' E 001°55'1111.0
2014-Aug-31 03:33N 40°02' E 001°47'1111.1
2014-Aug-31 02:33N 39°53' E 001°38'1111.1
2014-Aug-31 01:33N 39°44' E 001°29'1111.1
2014-Aug-31 00:31N 39°35' E 001°20'1311.1
2014-Aug-30 23:22N 39°24' E 001°10'1011.0
2014-Aug-30 22:26N 39°16' E 001°02'11710.7
2014-Aug-30 11:31N 37°41' W 000°24'3 3.5
2014-Aug-30 10:33N 37°38' W 000°26'1510.6
2014-Aug-30 09:07N 37°27' W 000°39'610.3
2014-Aug-30 08:32N 37°23' W 000°45'1110.6
2014-Aug-30 07:30N 37°16' W 000°55'1210.5
2014-Aug-30 06:20N 37°08' W 001°07'6411.1
2014-Aug-30 00:33N 36°25' W 002°07'15412.6
2014-Aug-29 12:21N 35°59' W 005°15'12012.2
2014-Aug-29 02:32N 36°11' W 007°42'1111.8
2014-Aug-29 01:33N 36°13' W 007°56'1411.8
2014-Aug-29 00:24N 36°16' W 008°13'1012.0
2014-Aug-28 23:32N 36°19' W 008°25'1211.7
2014-Aug-28 22:33N 36°22' W 008°39'1211.9
2014-Aug-28 21:33N 36°24' W 008°53'1212.2
2014-Aug-28 20:33N 36°27' W 009°08'1511.6
2014-Aug-28 19:17N 36°34' W 009°25'1012.6
2014-Aug-28 18:31N 36°41' W 009°33'  
2014-Aug-24 22:11N 49°35' W 000°19'711.8
2014-Aug-24 21:33N 49°32' W 000°08'1111.1
2014-Aug-24 20:33N 49°28' E 000°08'4 4.1
2014-Aug-24 19:33N 49°28' E 000°14'0 0.0
2014-Aug-24 18:31N 49°28' E 000°14'0 0.0
2014-Aug-24 17:31N 49°28' E 000°14'0 0.0
2014-Aug-24 16:31N 49°28' E 000°14'0 0.0
2014-Aug-24 15:31N 49°28' E 000°14'0 0.0
2014-Aug-24 14:31N 49°28' E 000°14'0 0.0
2014-Aug-24 13:31N 49°28' E 000°14'0 0.0
2014-Aug-24 12:31N 49°28' E 000°14'0 0.0
2014-Aug-24 11:31N 49°28' E 000°14'0 0.0
2014-Aug-24 10:22N 49°28' E 000°14'0 0.0
2014-Aug-24 09:28N 49°28' E 000°14'0 0.0
2014-Aug-24 08:31N 49°28' E 000°14'0 0.0
2014-Aug-24 07:31N 49°28' E 000°14'0 0.0
2014-Aug-24 06:31N 49°28' E 000°14'0 0.0
2014-Aug-24 05:13N 49°28' E 000°14'0 0.0
2014-Aug-24 04:31N 49°28' E 000°14'0 0.0
2014-Aug-24 03:31N 49°28' E 000°14'0 0.0
2014-Aug-24 02:25N 49°28' E 000°14'0 0.0
2014-Aug-24 01:31N 49°28' E 000°14'0 0.0
2014-Aug-23 23:31N 49°28' E 000°14'0 0.0
2014-Aug-23 22:31N 49°28' E 000°14'0 0.0
2014-Aug-23 21:25N 49°28' E 000°14'0 0.0
2014-Aug-23 20:25N 49°28' E 000°14'0 0.0
2014-Aug-23 19:34N 49°28' E 000°14'  

Dump ship's entire track history